createdAt,value
2022-11-17T00:02:23.494Z,10.00
2022-11-17T00:06:25.205Z,10.10
2022-11-17T00:10:26.859Z,10.10
2022-11-17T00:14:36.439Z,10.00
2022-11-17T00:18:56.892Z,10.00
2022-11-17T00:22:58.564Z,10.00
2022-11-17T00:27:02.886Z,10.00
2022-11-17T00:31:23.199Z,10.00
2022-11-17T00:35:24.835Z,10.00
2022-11-17T00:39:26.583Z,10.00
2022-11-17T00:43:28.346Z,10.00
2022-11-17T00:47:30.074Z,10.00
2022-11-17T00:51:32.476Z,10.10
2022-11-17T00:55:34.236Z,10.00
2022-11-17T00:59:36.072Z,10.00
2022-11-17T01:03:38.080Z,9.90
2022-11-17T01:07:39.959Z,9.90
2022-11-17T01:11:42.394Z,9.90
2022-11-17T01:15:44.101Z,9.90
2022-11-17T01:19:45.829Z,9.90
2022-11-17T01:23:49.006Z,9.90
2022-11-17T01:27:50.649Z,9.90
2022-11-17T01:31:52.654Z,9.90
2022-11-17T01:35:54.322Z,9.90
2022-11-17T01:39:56.013Z,9.80
2022-11-17T01:43:59.285Z,9.80
2022-11-17T01:48:04.545Z,9.90
2022-11-17T01:52:09.130Z,9.80
2022-11-17T01:56:19.364Z,9.80
2022-11-17T02:00:21.177Z,9.80
2022-11-17T02:04:29.682Z,9.80
2022-11-17T02:08:33.671Z,9.90
2022-11-17T02:12:36.178Z,9.90
2022-11-17T02:16:37.874Z,9.90
2022-11-17T02:20:58.509Z,9.90
2022-11-17T02:25:12.566Z,9.90
2022-11-17T02:29:39.486Z,9.90
2022-11-17T02:34:06.002Z,9.90
2022-11-17T02:38:19.606Z,9.90
2022-11-17T02:42:53.468Z,9.90
2022-11-17T02:47:02.707Z,9.90
2022-11-17T02:51:06.520Z,9.90
2022-11-17T02:55:11.082Z,9.90
2022-11-17T02:59:15.978Z,9.90
2022-11-17T03:03:20.534Z,9.90
2022-11-17T03:07:35.785Z,9.90
2022-11-17T03:11:59.268Z,9.90
2022-11-17T03:16:27.376Z,9.90
2022-11-17T03:20:35.175Z,9.80
2022-11-17T03:24:44.254Z,9.80
2022-11-17T03:28:46.673Z,9.80
2022-11-17T03:32:53.925Z,9.80
2022-11-17T03:37:05.226Z,9.80
2022-11-17T03:41:10.057Z,9.80
2022-11-17T03:45:21.701Z,9.90
2022-11-17T03:50:10.832Z,9.80
2022-11-17T03:54:14.519Z,9.80
2022-11-17T03:58:19.563Z,9.90
2022-11-17T04:02:22.369Z,9.80
2022-11-17T04:06:24.159Z,9.80
2022-11-17T04:10:26.647Z,9.80
2022-11-17T04:14:47.066Z,9.70
2022-11-17T04:18:49.174Z,9.70
2022-11-17T04:23:06.963Z,9.70
2022-11-17T04:27:27.269Z,9.70
2022-11-17T04:31:30.794Z,9.70
2022-11-17T04:35:32.435Z,9.70
2022-11-17T04:39:37.547Z,9.60
2022-11-17T04:43:39.220Z,9.70
2022-11-17T04:47:40.894Z,9.70
2022-11-17T04:51:42.776Z,9.70
2022-11-17T04:55:44.402Z,9.60
2022-11-17T04:59:46.047Z,9.70
2022-11-17T05:03:53.397Z,9.60
2022-11-17T05:07:55.088Z,9.60
2022-11-17T05:12:15.402Z,9.70
2022-11-17T05:16:36.477Z,9.60
2022-11-17T05:20:38.170Z,9.70
2022-11-17T05:24:40.093Z,9.90
2022-11-17T05:28:41.990Z,9.90
2022-11-17T05:32:43.719Z,9.80
2022-11-17T05:36:45.680Z,9.80
2022-11-17T05:40:47.369Z,9.70
2022-11-17T05:44:49.093Z,9.70
2022-11-17T05:48:51.521Z,9.70
2022-11-17T05:52:53.201Z,9.70
2022-11-17T05:57:05.621Z,9.70
2022-11-17T06:01:09.144Z,9.70
2022-11-17T06:05:14.414Z,9.70
2022-11-17T06:09:19.355Z,9.70
2022-11-17T06:13:25.925Z,9.70
2022-11-17T06:17:41.527Z,9.80
2022-11-17T06:22:09.988Z,9.80
2022-11-17T06:26:08.895Z,9.80
2022-11-17T06:30:11.005Z,9.90
2022-11-17T06:34:12.993Z,9.80
2022-11-17T06:38:14.718Z,9.80
2022-11-17T06:42:16.353Z,9.90
2022-11-17T06:46:19.101Z,9.90
2022-11-17T06:50:20.814Z,9.80
2022-11-17T06:54:22.469Z,9.80
2022-11-17T06:58:24.095Z,9.90
2022-11-17T07:02:25.746Z,9.90
2022-11-17T07:06:27.427Z,9.80
2022-11-17T07:10:30.028Z,9.90
2022-11-17T07:14:31.684Z,9.90
2022-11-17T07:18:34.552Z,9.90
2022-11-17T07:22:37.351Z,10.00
2022-11-17T07:26:39.041Z,10.00
2022-11-17T07:30:40.720Z,10.00
2022-11-17T07:34:42.468Z,9.90
2022-11-17T07:38:44.098Z,10.00
2022-11-17T07:42:49.900Z,10.00
2022-11-17T07:46:51.606Z,10.00
2022-11-17T07:50:53.271Z,10.00
2022-11-17T07:54:54.941Z,10.00
2022-11-17T07:58:56.642Z,10.00
2022-11-17T08:03:03.953Z,10.00
2022-11-17T08:07:05.560Z,9.90
2022-11-17T08:11:09.896Z,9.80
2022-11-17T08:15:11.609Z,9.80
2022-11-17T08:19:14.198Z,9.80
2022-11-17T08:23:15.945Z,9.80
2022-11-17T08:27:17.605Z,9.90
2022-11-17T08:31:19.266Z,9.90
2022-11-17T08:35:23.721Z,9.90
2022-11-17T08:39:25.383Z,9.90
2022-11-17T08:43:27.390Z,9.90
2022-11-17T08:47:30.039Z,9.90
2022-11-17T08:51:31.784Z,9.90
2022-11-17T08:55:41.007Z,9.90
2022-11-17T08:59:43.166Z,9.90
2022-11-17T09:03:46.903Z,9.90
2022-11-17T09:07:49.023Z,10.00
2022-11-17T09:11:50.803Z,10.00
2022-11-17T09:15:52.475Z,10.10
2022-11-17T09:19:54.122Z,10.10
2022-11-17T09:23:55.891Z,10.20
2022-11-17T09:27:57.754Z,10.20
2022-11-17T09:31:59.506Z,10.20
2022-11-17T09:36:01.234Z,10.20
2022-11-17T09:40:03.041Z,10.30
2022-11-17T09:44:19.003Z,10.30
2022-11-17T09:48:53.765Z,10.40
2022-11-17T09:53:06.470Z,10.40
2022-11-17T09:57:40.054Z,10.50
2022-11-17T10:01:42.056Z,10.60
2022-11-17T10:05:44.357Z,10.70
2022-11-17T10:09:48.246Z,10.80
2022-11-17T10:13:50.932Z,10.90
2022-11-17T10:17:52.611Z,11.00
2022-11-17T10:22:03.686Z,11.00
2022-11-17T10:26:11.152Z,11.00
2022-11-17T10:30:26.414Z,11.00
2022-11-17T10:34:40.701Z,11.00
2022-11-17T10:38:52.241Z,11.00
2022-11-17T10:42:58.298Z,11.10
2022-11-17T10:47:03.951Z,11.10
2022-11-17T10:51:16.488Z,11.20
2022-11-17T10:55:21.258Z,11.20
2022-11-17T10:59:32.206Z,11.30
2022-11-17T11:03:35.569Z,11.30
2022-11-17T11:07:38.147Z,11.40
2022-11-17T11:11:49.583Z,11.50
2022-11-17T11:15:53.483Z,11.50
2022-11-17T11:19:56.114Z,11.60
2022-11-17T11:44:32.747Z,11.90
2022-11-17T11:48:40.066Z,11.70
2022-11-17T11:52:45.469Z,11.60
2022-11-17T11:56:48.481Z,11.60
2022-11-17T12:00:55.085Z,11.60
2022-11-17T12:05:16.556Z,11.60
2022-11-17T12:09:40.801Z,11.70
2022-11-17T12:13:48.422Z,11.80
2022-11-17T12:18:02.653Z,11.90
2022-11-17T12:22:04.800Z,11.90
2022-11-17T12:26:07.329Z,11.90
2022-11-17T12:30:31.214Z,11.90
2022-11-17T12:34:37.394Z,11.90
2022-11-17T12:38:40.578Z,11.80
2022-11-17T12:43:14.543Z,11.70
2022-11-17T12:47:25.588Z,11.70
2022-11-17T12:51:37.462Z,11.70
2022-11-17T12:55:51.504Z,11.50
2022-11-17T13:00:05.548Z,11.40
2022-11-17T13:04:21.632Z,11.50
2022-11-17T13:08:24.391Z,11.50
2022-11-17T13:12:27.525Z,11.50
2022-11-17T13:16:29.678Z,11.60
2022-11-17T13:20:31.844Z,11.60
2022-11-17T13:24:37.362Z,11.70
2022-11-17T13:28:39.416Z,11.70
2022-11-17T13:32:43.623Z,11.80
2022-11-17T13:37:01.491Z,11.90
2022-11-17T13:41:05.224Z,11.90
2022-11-17T13:45:07.861Z,12.00
2022-11-17T13:49:38.824Z,12.00
2022-11-17T13:53:43.746Z,12.00
2022-11-17T13:58:07.028Z,11.90
2022-11-17T14:02:20.950Z,11.90
2022-11-17T14:06:23.114Z,11.80
2022-11-17T14:10:31.765Z,11.80
2022-11-17T14:14:43.759Z,11.70
2022-11-17T14:19:20.965Z,11.60
2022-11-17T14:23:23.005Z,11.70
2022-11-17T14:27:31.767Z,11.60
2022-11-17T14:31:33.812Z,11.60
2022-11-17T14:35:36.450Z,11.70
2022-11-17T14:39:38.490Z,11.70
2022-11-17T14:43:40.532Z,11.80
2022-11-17T14:47:43.301Z,11.70
2022-11-17T14:51:49.426Z,11.70
2022-11-17T14:55:51.723Z,11.60
2022-11-17T14:59:53.751Z,11.60
2022-11-17T15:03:58.230Z,11.50
2022-11-17T15:08:00.484Z,11.50
2022-11-17T15:12:02.512Z,11.60
2022-11-17T15:16:05.879Z,11.50
2022-11-17T15:20:08.756Z,11.40
2022-11-17T15:24:10.803Z,11.30
2022-11-17T15:28:18.927Z,11.20
2022-11-17T15:32:23.533Z,11.20
2022-11-17T15:36:25.815Z,11.10
2022-11-17T15:40:27.863Z,11.10
2022-11-17T15:44:30.143Z,11.10
2022-11-17T15:48:33.138Z,11.00
2022-11-17T15:53:02.229Z,10.90
2022-11-17T15:56:57.263Z,10.80
2022-11-17T16:01:48.630Z,10.90
2022-11-17T16:05:50.671Z,10.90
2022-11-17T16:09:52.950Z,10.90
2022-11-17T16:13:56.559Z,10.90
2022-11-17T16:17:58.636Z,11.00
2022-11-17T16:22:00.757Z,11.10
2022-11-17T16:26:02.802Z,11.10
2022-11-17T16:30:05.157Z,11.20
2022-11-17T16:34:18.908Z,11.20
2022-11-17T16:38:21.178Z,11.40
2022-11-17T16:42:23.227Z,11.30
2022-11-17T16:46:29.266Z,11.50
2022-11-17T16:50:31.376Z,11.30
2022-11-17T16:54:33.441Z,11.20
2022-11-17T16:58:35.702Z,11.10
2022-11-17T17:02:37.942Z,11.10
2022-11-17T17:06:42.307Z,11.10
2022-11-17T17:10:44.357Z,11.00
2022-11-17T17:14:46.414Z,10.90
2022-11-17T17:18:48.678Z,10.90
2022-11-17T17:22:50.845Z,10.70
2022-11-17T17:26:52.899Z,10.60
2022-11-17T17:30:55.556Z,10.60
2022-11-17T17:34:57.589Z,10.40
2022-11-17T17:39:04.296Z,10.30
2022-11-17T17:43:06.464Z,10.20
2022-11-17T17:47:08.860Z,10.10
2022-11-17T17:51:20.086Z,10.00
2022-11-17T17:55:22.219Z,10.10
2022-11-17T17:59:24.464Z,10.00
2022-11-17T18:03:26.582Z,10.00
2022-11-17T18:07:31.882Z,10.00
2022-11-17T18:11:35.795Z,10.00
2022-11-17T18:15:40.452Z,9.90
2022-11-17T18:19:42.595Z,9.90
2022-11-17T18:23:45.363Z,9.80
2022-11-17T18:27:47.522Z,9.80
2022-11-17T18:31:50.651Z,9.70
2022-11-17T18:35:52.803Z,9.70
2022-11-17T18:39:54.741Z,9.60
2022-11-17T18:43:57.731Z,9.50
2022-11-17T18:47:59.894Z,9.50
2022-11-17T18:52:01.950Z,9.40
2022-11-17T18:56:10.103Z,9.40
2022-11-17T19:00:12.869Z,9.40
2022-11-17T19:04:16.251Z,9.40
2022-11-17T19:08:18.295Z,9.50
2022-11-17T19:12:27.942Z,9.50
2022-11-17T19:16:30.639Z,9.60
2022-11-17T19:20:32.695Z,9.60
2022-11-17T19:24:34.736Z,9.50
2022-11-17T19:28:46.880Z,9.50
2022-11-17T19:32:54.665Z,9.40
2022-11-17T19:36:59.336Z,9.30
2022-11-17T19:45:58.853Z,9.20
2022-11-17T19:50:01.170Z,9.10
2022-11-17T19:54:08.748Z,9.00
2022-11-17T19:58:12.116Z,9.10
2022-11-17T20:02:14.719Z,9.10
2022-11-17T20:06:19.281Z,9.00
2022-11-17T20:10:24.388Z,9.10
2022-11-17T20:14:29.235Z,9.00
2022-11-17T20:18:31.876Z,9.00
2022-11-17T20:22:34.284Z,8.90
2022-11-17T20:26:40.560Z,8.80
2022-11-17T20:30:43.166Z,8.80
2022-11-17T20:34:45.212Z,8.80
2022-11-17T20:38:52.179Z,8.80
2022-11-17T20:42:54.333Z,8.70
2022-11-17T20:46:56.610Z,8.70
2022-11-17T20:51:07.422Z,8.70
2022-11-17T20:55:14.870Z,8.70
2022-11-17T20:59:20.255Z,8.70
2022-11-17T21:03:23.150Z,8.60
2022-11-17T21:07:29.929Z,8.60
2022-11-17T21:11:50.749Z,8.50
2022-11-17T21:16:10.342Z,8.50
2022-11-17T21:20:12.476Z,8.40
2022-11-17T21:24:14.648Z,8.30
2022-11-17T21:28:16.691Z,8.20
2022-11-17T21:32:18.959Z,8.20
2022-11-17T21:36:22.088Z,8.10
2022-11-17T21:40:24.362Z,8.00
2022-11-17T21:44:26.424Z,8.00
2022-11-17T21:48:28.811Z,8.00
2022-11-17T21:52:30.972Z,8.00
2022-11-17T21:56:33.988Z,8.00
2022-11-17T22:00:36.176Z,8.00
2022-11-17T22:04:38.429Z,8.00
2022-11-17T22:08:42.629Z,8.00
2022-11-17T22:12:44.786Z,8.00
2022-11-17T22:16:49.368Z,7.90
2022-11-17T22:20:54.282Z,8.00
2022-11-17T22:24:56.313Z,8.00
2022-11-17T22:28:59.443Z,7.90
2022-11-17T22:33:01.602Z,7.90
2022-11-17T22:37:03.554Z,8.00
2022-11-17T22:41:07.790Z,7.90
2022-11-17T22:45:10.381Z,7.90
2022-11-17T22:49:12.660Z,7.90
2022-11-17T22:53:15.055Z,7.90
2022-11-17T22:57:18.785Z,8.00
2022-11-17T23:01:20.818Z,8.00
2022-11-17T23:05:23.104Z,8.10
2022-11-17T23:09:25.150Z,8.30
2022-11-17T23:13:27.915Z,8.40
2022-11-17T23:17:30.073Z,8.50
2022-11-17T23:21:32.352Z,8.60
2022-11-17T23:25:34.395Z,8.70
2022-11-17T23:29:36.437Z,8.70
2022-11-17T23:33:40.885Z,8.80
2022-11-17T23:37:43.044Z,8.80
2022-11-17T23:41:45.100Z,8.80
2022-11-17T23:45:47.269Z,8.80
2022-11-17T23:49:49.289Z,8.80
2022-11-17T23:53:51.692Z,9.00
2022-11-17T23:57:53.733Z,9.00
